sensor_id;sensor_type;location;lat;lon;timestamp;pressure;altitude;pressure_sealevel;temperature;humidity
12213;BME280;6169;44.158;22.788;2023-02-28T00:01:55;101956.78;;;6.42;58.90
12213;BME280;6169;44.158;22.788;2023-02-28T00:06:59;101958.47;;;6.43;59.72
12213;BME280;6169;44.158;22.788;2023-02-28T00:12:01;101965.63;;;6.28;60.91
12213;BME280;6169;44.158;22.788;2023-02-28T00:17:11;101982.19;;;6.25;62.43
12213;BME280;6169;44.158;22.788;2023-02-28T00:22:15;101982.81;;;6.35;61.72
12213;BME280;6169;44.158;22.788;2023-02-28T00:27:18;101982.47;;;5.51;64.19
12213;BME280;6169;44.158;22.788;2023-02-28T00:32:20;101983.69;;;5.96;62.90
12213;BME280;6169;44.158;22.788;2023-02-28T00:37:24;101984.94;;;6.17;62.45
12213;BME280;6169;44.158;22.788;2023-02-28T00:42:26;101991.91;;;6.65;59.91
12213;BME280;6169;44.158;22.788;2023-02-28T00:47:29;101989.09;;;6.59;59.57
12213;BME280;6169;44.158;22.788;2023-02-28T00:52:33;102000.25;;;6.56;60.52
12213;BME280;6169;44.158;22.788;2023-02-28T00:57:35;102004.44;;;6.35;60.99
12213;BME280;6169;44.158;22.788;2023-02-28T01:02:37;102007.56;;;6.47;60.92
12213;BME280;6169;44.158;22.788;2023-02-28T01:07:41;102011.50;;;6.36;60.42
12213;BME280;6169;44.158;22.788;2023-02-28T01:12:43;102011.25;;;6.85;59.26
12213;BME280;6169;44.158;22.788;2023-02-28T01:17:46;102017.31;;;6.79;58.83
12213;BME280;6169;44.158;22.788;2023-02-28T01:22:50;102004.19;;;6.45;58.43
12213;BME280;6169;44.158;22.788;2023-02-28T01:27:52;101995.13;;;6.38;60.52
12213;BME280;6169;44.158;22.788;2023-02-28T01:32:54;101997.53;;;6.33;61.99
12213;BME280;6169;44.158;22.788;2023-02-28T01:37:58;101986.03;;;5.99;61.46
12213;BME280;6169;44.158;22.788;2023-02-28T01:43:00;101979.97;;;5.97;62.73
12213;BME280;6169;44.158;22.788;2023-02-28T01:48:05;101988.13;;;6.20;61.36
12213;BME280;6169;44.158;22.788;2023-02-28T01:53:14;101989.72;;;6.07;62.74
12213;BME280;6169;44.158;22.788;2023-02-28T01:58:18;102002.59;;;6.28;62.36
12213;BME280;6169;44.158;22.788;2023-02-28T02:03:21;102010.25;;;6.78;60.66
12213;BME280;6169;44.158;22.788;2023-02-28T02:08:26;102003.06;;;6.62;61.13
12213;BME280;6169;44.158;22.788;2023-02-28T02:13:50;102009.41;;;6.55;61.65
12213;BME280;6169;44.158;22.788;2023-02-28T02:19:01;102012.03;;;6.32;62.70
12213;BME280;6169;44.158;22.788;2023-02-28T02:24:47;102012.63;;;6.50;62.29
12213;BME280;6169;44.158;22.788;2023-02-28T02:30:14;102000.38;;;6.31;63.51
12213;BME280;6169;44.158;22.788;2023-02-28T02:35:24;102006.94;;;5.97;64.91
12213;BME280;6169;44.158;22.788;2023-02-28T02:40:33;101974.28;;;5.84;63.92
12213;BME280;6169;44.158;22.788;2023-02-28T02:45:41;102026.81;;;6.13;64.12
12213;BME280;6169;44.158;22.788;2023-02-28T02:50:51;102027.44;;;6.23;63.34
12213;BME280;6169;44.158;22.788;2023-02-28T02:55:55;102018.00;;;6.19;63.30
12213;BME280;6169;44.158;22.788;2023-02-28T03:01:00;102004.84;;;6.24;61.92
12213;BME280;6169;44.158;22.788;2023-02-28T03:06:06;102002.38;;;5.98;63.54
12213;BME280;6169;44.158;22.788;2023-02-28T03:11:13;102008.91;;;6.12;63.22
12213;BME280;6169;44.158;22.788;2023-02-28T03:16:33;102033.25;;;6.04;64.16
12213;BME280;6169;44.158;22.788;2023-02-28T03:21:38;102029.75;;;6.34;63.51
12213;BME280;6169;44.158;22.788;2023-02-28T03:26:45;102039.66;;;6.11;63.22
12213;BME280;6169;44.158;22.788;2023-02-28T03:31:50;102042.44;;;6.26;64.09
12213;BME280;6169;44.158;22.788;2023-02-28T03:36:59;102058.63;;;6.34;65.57
12213;BME280;6169;44.158;22.788;2023-02-28T03:42:07;102061.88;;;6.29;64.58
12213;BME280;6169;44.158;22.788;2023-02-28T03:47:15;101925.88;;;5.27;65.17
12213;BME280;6169;44.158;22.788;2023-02-28T03:52:22;102070.00;;;6.21;64.14
12213;BME280;6169;44.158;22.788;2023-02-28T03:57:32;102091.97;;;6.57;64.22
12213;BME280;6169;44.158;22.788;2023-02-28T04:02:37;102083.41;;;6.37;64.39
12213;BME280;6169;44.158;22.788;2023-02-28T04:07:43;102092.03;;;6.41;64.47
12213;BME280;6169;44.158;22.788;2023-02-28T04:12:45;102095.34;;;6.51;64.58
12213;BME280;6169;44.158;22.788;2023-02-28T04:17:47;102099.13;;;6.34;64.47
12213;BME280;6169;44.158;22.788;2023-02-28T04:22:51;102094.19;;;6.77;62.94
12213;BME280;6169;44.158;22.788;2023-02-28T04:27:54;102093.56;;;6.43;63.36
12213;BME280;6169;44.158;22.788;2023-02-28T04:32:56;102110.50;;;6.21;64.94
12213;BME280;6169;44.158;22.788;2023-02-28T04:38:00;102111.69;;;6.27;64.58
12213;BME280;6169;44.158;22.788;2023-02-28T04:43:02;102107.19;;;6.50;63.88
12213;BME280;6169;44.158;22.788;2023-02-28T04:48:05;102104.63;;;6.57;61.80
12213;BME280;6169;44.158;22.788;2023-02-28T04:53:09;102095.81;;;6.63;63.12
12213;BME280;6169;44.158;22.788;2023-02-28T04:58:11;102106.31;;;6.58;62.97
12213;BME280;6169;44.158;22.788;2023-02-28T05:03:13;102100.31;;;6.71;62.88
12213;BME280;6169;44.158;22.788;2023-02-28T05:08:17;102095.19;;;6.53;64.18
12213;BME280;6169;44.158;22.788;2023-02-28T05:13:20;102102.44;;;6.92;63.54
12213;BME280;6169;44.158;22.788;2023-02-28T05:18:22;102095.88;;;6.55;64.21
12213;BME280;6169;44.158;22.788;2023-02-28T05:23:26;102099.56;;;6.85;64.17
12213;BME280;6169;44.158;22.788;2023-02-28T05:28:30;102108.88;;;6.82;63.60
12213;BME280;6169;44.158;22.788;2023-02-28T05:33:32;102119.31;;;6.54;65.35
12213;BME280;6169;44.158;22.788;2023-02-28T05:38:36;102129.66;;;6.42;66.38
12213;BME280;6169;44.158;22.788;2023-02-28T05:43:38;102135.38;;;6.56;68.00
12213;BME280;6169;44.158;22.788;2023-02-28T05:48:41;102142.09;;;6.12;70.09
12213;BME280;6169;44.158;22.788;2023-02-28T05:53:45;102146.19;;;6.56;69.33
12213;BME280;6169;44.158;22.788;2023-02-28T05:58:48;102140.31;;;6.44;69.47
12213;BME280;6169;44.158;22.788;2023-02-28T06:03:51;102148.91;;;6.48;69.66
12213;BME280;6169;44.158;22.788;2023-02-28T06:08:55;102150.56;;;6.57;69.99
12213;BME280;6169;44.158;22.788;2023-02-28T06:14:00;102154.03;;;6.26;69.94
12213;BME280;6169;44.158;22.788;2023-02-28T06:19:03;102153.50;;;6.39;70.76
12213;BME280;6169;44.158;22.788;2023-02-28T06:24:08;102173.78;;;6.27;70.22
12213;BME280;6169;44.158;22.788;2023-02-28T06:29:10;102145.84;;;6.51;69.47
12213;BME280;6169;44.158;22.788;2023-02-28T06:34:13;102173.88;;;6.58;69.87
12213;BME280;6169;44.158;22.788;2023-02-28T06:39:18;102177.13;;;6.84;69.49
12213;BME280;6169;44.158;22.788;2023-02-28T06:44:21;102176.94;;;6.47;70.62
12213;BME280;6169;44.158;22.788;2023-02-28T06:49:23;102193.47;;;6.99;68.93
12213;BME280;6169;44.158;22.788;2023-02-28T06:54:27;102210.06;;;6.96;68.51
12213;BME280;6169;44.158;22.788;2023-02-28T06:59:29;102200.44;;;6.94;68.85
12213;BME280;6169;44.158;22.788;2023-02-28T07:04:32;102205.56;;;6.72;69.29
12213;BME280;6169;44.158;22.788;2023-02-28T07:09:36;102204.22;;;7.16;68.24
12213;BME280;6169;44.158;22.788;2023-02-28T07:14:38;102199.53;;;6.62;70.44
12213;BME280;6169;44.158;22.788;2023-02-28T07:19:40;102194.94;;;6.07;71.34
12213;BME280;6169;44.158;22.788;2023-02-28T07:24:44;102200.97;;;6.17;71.47
12213;BME280;6169;44.158;22.788;2023-02-28T07:29:46;102202.00;;;5.83;72.72
12213;BME280;6169;44.158;22.788;2023-02-28T07:34:49;102196.59;;;6.24;72.01
12213;BME280;6169;44.158;22.788;2023-02-28T07:39:52;102207.25;;;6.73;70.21
12213;BME280;6169;44.158;22.788;2023-02-28T07:44:55;102211.91;;;6.40;71.40
12213;BME280;6169;44.158;22.788;2023-02-28T07:49:57;102210.78;;;6.10;72.75
12213;BME280;6169;44.158;22.788;2023-02-28T07:55:01;102225.38;;;6.56;70.30
12213;BME280;6169;44.158;22.788;2023-02-28T08:00:07;102225.78;;;6.84;68.77
12213;BME280;6169;44.158;22.788;2023-02-28T08:05:10;102232.19;;;6.03;72.50
12213;BME280;6169;44.158;22.788;2023-02-28T08:10:14;102232.88;;;6.94;69.50
12213;BME280;6169;44.158;22.788;2023-02-28T08:15:17;102240.00;;;6.95;69.56
12213;BME280;6169;44.158;22.788;2023-02-28T08:20:19;102239.06;;;6.63;70.21
12213;BME280;6169;44.158;22.788;2023-02-28T08:25:23;102241.78;;;6.55;70.42
12213;BME280;6169;44.158;22.788;2023-02-28T08:30:25;102245.19;;;6.40;71.19
12213;BME280;6169;44.158;22.788;2023-02-28T08:35:28;102242.84;;;6.05;72.38
12213;BME280;6169;44.158;22.788;2023-02-28T08:40:32;102244.53;;;6.22;72.26
12213;BME280;6169;44.158;22.788;2023-02-28T08:45:34;102246.88;;;6.25;71.43
12213;BME280;6169;44.158;22.788;2023-02-28T08:50:36;102240.47;;;5.85;73.51
12213;BME280;6169;44.158;22.788;2023-02-28T08:55:40;102253.91;;;6.59;71.12
12213;BME280;6169;44.158;22.788;2023-02-28T09:00:42;102251.28;;;6.18;71.93
12213;BME280;6169;44.158;22.788;2023-02-28T09:05:52;102246.03;;;6.00;72.70
12213;BME280;6169;44.158;22.788;2023-02-28T09:10:56;102247.75;;;6.01;71.79
12213;BME280;6169;44.158;22.788;2023-02-28T09:15:59;102254.88;;;5.27;75.61
12213;BME280;6169;44.158;22.788;2023-02-28T09:21:03;102261.91;;;6.03;71.57
12213;BME280;6169;44.158;22.788;2023-02-28T09:26:07;102267.06;;;6.86;69.16
12213;BME280;6169;44.158;22.788;2023-02-28T09:31:14;102267.72;;;6.80;69.11
12213;BME280;6169;44.158;22.788;2023-02-28T09:36:17;102243.94;;;6.59;69.70
12213;BME280;6169;44.158;22.788;2023-02-28T09:41:22;102196.34;;;6.50;68.93
12213;BME280;6169;44.158;22.788;2023-02-28T09:46:32;102251.50;;;6.80;69.30
12213;BME280;6169;44.158;22.788;2023-02-28T09:51:43;102248.06;;;5.73;73.45
12213;BME280;6169;44.158;22.788;2023-02-28T09:56:52;102250.75;;;5.65;73.02
12213;BME280;6169;44.158;22.788;2023-02-28T10:01:59;102249.94;;;5.73;72.70
12213;BME280;6169;44.158;22.788;2023-02-28T10:07:05;102244.19;;;6.17;70.98
12213;BME280;6169;44.158;22.788;2023-02-28T10:12:19;102198.66;;;5.73;70.65
12213;BME280;6169;44.158;22.788;2023-02-28T10:17:25;102234.06;;;5.94;71.14
12213;BME280;6169;44.158;22.788;2023-02-28T10:22:33;102269.03;;;7.01;67.52
12213;BME280;6169;44.158;22.788;2023-02-28T10:27:37;102280.63;;;7.49;65.56
12213;BME280;6169;44.158;22.788;2023-02-28T10:32:41;102274.06;;;7.12;66.49
12213;BME280;6169;44.158;22.788;2023-02-28T10:37:50;102262.53;;;7.72;64.38
12213;BME280;6169;44.158;22.788;2023-02-28T10:42:57;102251.78;;;7.02;67.28
12213;BME280;6169;44.158;22.788;2023-02-28T10:48:01;102247.44;;;6.93;68.95
12213;BME280;6169;44.158;22.788;2023-02-28T10:53:24;102251.09;;;6.44;70.64
12213;BME280;6169;44.158;22.788;2023-02-28T10:58:47;102240.19;;;7.24;68.51
12213;BME280;6169;44.158;22.788;2023-02-28T11:03:51;102236.72;;;7.07;68.62
12213;BME280;6169;44.158;22.788;2023-02-28T11:08:55;102229.88;;;6.88;69.59
12213;BME280;6169;44.158;22.788;2023-02-28T11:14:04;102223.03;;;6.45;70.79
12213;BME280;6169;44.158;22.788;2023-02-28T11:19:18;102212.69;;;6.57;71.24
12213;BME280;6169;44.158;22.788;2023-02-28T11:24:25;102208.59;;;7.25;68.53
12213;BME280;6169;44.158;22.788;2023-02-28T11:29:32;102198.00;;;7.07;69.55
12213;BME280;6169;44.158;22.788;2023-02-28T11:34:36;102208.00;;;7.06;69.81
12213;BME280;6169;44.158;22.788;2023-02-28T11:39:39;102206.03;;;7.23;69.00
12213;BME280;6169;44.158;22.788;2023-02-28T11:44:51;102216.13;;;6.42;70.43
12213;BME280;6169;44.158;22.788;2023-02-28T11:50:08;102198.00;;;6.59;71.72
12213;BME280;6169;44.158;22.788;2023-02-28T11:55:17;102197.38;;;6.49;71.05
12213;BME280;6169;44.158;22.788;2023-02-28T12:00:35;102207.88;;;7.00;69.97
12213;BME280;6169;44.158;22.788;2023-02-28T12:05:44;102195.97;;;7.09;69.31
12213;BME280;6169;44.158;22.788;2023-02-28T12:10:57;102202.03;;;7.42;68.42
12213;BME280;6169;44.158;22.788;2023-02-28T12:16:44;102215.63;;;7.57;68.16
12213;BME280;6169;44.158;22.788;2023-02-28T12:22:03;102221.03;;;7.34;67.84
12213;BME280;6169;44.158;22.788;2023-02-28T12:27:10;102207.81;;;7.39;67.79
12213;BME280;6169;44.158;22.788;2023-02-28T12:32:18;102211.94;;;6.79;69.16
12213;BME280;6169;44.158;22.788;2023-02-28T12:37:25;102211.25;;;6.94;69.48
12213;BME280;6169;44.158;22.788;2023-02-28T12:42:33;102207.09;;;6.75;69.98
12213;BME280;6169;44.158;22.788;2023-02-28T12:47:42;102194.03;;;6.31;71.76
12213;BME280;6169;44.158;22.788;2023-02-28T12:52:53;102187.06;;;7.31;68.78
12213;BME280;6169;44.158;22.788;2023-02-28T12:58:03;102190.78;;;6.99;70.15
12213;BME280;6169;44.158;22.788;2023-02-28T13:03:42;102160.75;;;6.38;71.66
12213;BME280;6169;44.158;22.788;2023-02-28T13:09:02;102182.56;;;7.16;69.88
12213;BME280;6169;44.158;22.788;2023-02-28T13:14:19;102188.19;;;7.37;69.80
12213;BME280;6169;44.158;22.788;2023-02-28T13:19:25;102184.00;;;7.03;69.45
12213;BME280;6169;44.158;22.788;2023-02-28T13:24:43;102174.16;;;7.10;69.86
12213;BME280;6169;44.158;22.788;2023-02-28T13:29:46;102167.53;;;7.13;69.80
12213;BME280;6169;44.158;22.788;2023-02-28T13:35:15;102164.56;;;7.31;69.09
12213;BME280;6169;44.158;22.788;2023-02-28T13:40:36;102163.81;;;7.83;67.57
12213;BME280;6169;44.158;22.788;2023-02-28T13:45:39;102165.63;;;7.53;68.38
12213;BME280;6169;44.158;22.788;2023-02-28T13:51:38;102140.69;;;7.11;69.29
12213;BME280;6169;44.158;22.788;2023-02-28T13:56:45;102149.88;;;7.02;70.41
12213;BME280;6169;44.158;22.788;2023-02-28T14:02:03;102159.88;;;7.71;67.51
12213;BME280;6169;44.158;22.788;2023-02-28T14:07:20;102154.16;;;7.66;68.62
12213;BME280;6169;44.158;22.788;2023-02-28T14:18:20;102151.16;;;7.38;68.21
12213;BME280;6169;44.158;22.788;2023-02-28T14:23:46;102150.69;;;7.57;67.12
12213;BME280;6169;44.158;22.788;2023-02-28T14:29:06;102142.28;;;6.98;69.49
12213;BME280;6169;44.158;22.788;2023-02-28T14:34:28;102151.16;;;7.61;67.53
12213;BME280;6169;44.158;22.788;2023-02-28T14:39:35;102155.00;;;7.66;67.39
12213;BME280;6169;44.158;22.788;2023-02-28T14:44:38;102147.25;;;7.63;67.21
12213;BME280;6169;44.158;22.788;2023-02-28T14:49:43;102139.06;;;7.71;66.92
12213;BME280;6169;44.158;22.788;2023-02-28T14:54:52;102141.25;;;7.53;67.08
12213;BME280;6169;44.158;22.788;2023-02-28T15:00:00;102138.31;;;7.77;65.86
12213;BME280;6169;44.158;22.788;2023-02-28T15:05:20;102136.97;;;7.36;67.10
12213;BME280;6169;44.158;22.788;2023-02-28T15:10:26;102135.47;;;7.33;68.10
12213;BME280;6169;44.158;22.788;2023-02-28T15:15:40;102154.16;;;7.66;66.99
12213;BME280;6169;44.158;22.788;2023-02-28T15:20:44;102161.75;;;7.70;66.71
12213;BME280;6169;44.158;22.788;2023-02-28T15:25:50;102154.63;;;7.00;70.03
12213;BME280;6169;44.158;22.788;2023-02-28T15:30:57;102028.69;;;6.75;67.94
12213;BME280;6169;44.158;22.788;2023-02-28T15:36:06;102157.03;;;7.18;69.26
12213;BME280;6169;44.158;22.788;2023-02-28T15:41:25;102152.34;;;7.35;68.71
12213;BME280;6169;44.158;22.788;2023-02-28T15:46:28;102150.78;;;7.41;68.79
12213;BME280;6169;44.158;22.788;2023-02-28T15:51:34;102164.59;;;7.00;69.59
12213;BME280;6169;44.158;22.788;2023-02-28T15:56:43;102160.09;;;7.61;67.52
12213;BME280;6169;44.158;22.788;2023-02-28T16:01:47;102169.38;;;7.21;69.55
12213;BME280;6169;44.158;22.788;2023-02-28T16:07:05;102166.56;;;7.60;67.99
12213;BME280;6169;44.158;22.788;2023-02-28T16:12:10;102161.06;;;8.06;66.51
12213;BME280;6169;44.158;22.788;2023-02-28T16:17:19;102163.75;;;8.06;66.72
12213;BME280;6169;44.158;22.788;2023-02-28T16:22:22;102171.66;;;8.16;65.40
12213;BME280;6169;44.158;22.788;2023-02-28T16:27:30;102183.84;;;8.12;66.45
12213;BME280;6169;44.158;22.788;2023-02-28T16:32:34;102182.72;;;8.06;66.27
12213;BME280;6169;44.158;22.788;2023-02-28T16:37:37;102183.97;;;7.81;66.24
12213;BME280;6169;44.158;22.788;2023-02-28T16:42:42;102166.53;;;7.83;66.77
12213;BME280;6169;44.158;22.788;2023-02-28T16:47:45;102187.03;;;7.77;66.69
12213;BME280;6169;44.158;22.788;2023-02-28T16:52:48;102189.88;;;7.38;68.41
12213;BME280;6169;44.158;22.788;2023-02-28T16:57:56;102191.28;;;7.95;67.79
12213;BME280;6169;44.158;22.788;2023-02-28T17:02:59;102188.81;;;7.70;66.61
12213;BME280;6169;44.158;22.788;2023-02-28T17:08:03;102201.69;;;7.68;67.46
12213;BME280;6169;44.158;22.788;2023-02-28T17:13:08;102199.13;;;7.44;68.46
12213;BME280;6169;44.158;22.788;2023-02-28T17:18:13;102202.03;;;7.65;67.78
12213;BME280;6169;44.158;22.788;2023-02-28T17:23:17;102203.78;;;7.58;68.74
12213;BME280;6169;44.158;22.788;2023-02-28T17:28:22;102208.78;;;7.15;69.54
12213;BME280;6169;44.158;22.788;2023-02-28T17:33:25;102209.13;;;7.43;68.71
12213;BME280;6169;44.158;22.788;2023-02-28T17:38:27;102114.72;;;7.25;67.47
12213;BME280;6169;44.158;22.788;2023-02-28T17:43:31;102206.59;;;7.88;67.71
12213;BME280;6169;44.158;22.788;2023-02-28T17:48:34;102207.63;;;7.64;67.75
12213;BME280;6169;44.158;22.788;2023-02-28T17:53:37;102210.88;;;7.59;68.05
12213;BME280;6169;44.158;22.788;2023-02-28T17:58:41;102212.34;;;7.39;67.96
12213;BME280;6169;44.158;22.788;2023-02-28T18:03:45;102214.53;;;7.66;67.46
12213;BME280;6169;44.158;22.788;2023-02-28T18:08:48;102216.72;;;7.71;67.19
12213;BME280;6169;44.158;22.788;2023-02-28T18:13:54;102211.19;;;7.64;67.78
12213;BME280;6169;44.158;22.788;2023-02-28T18:18:57;102207.56;;;7.49;68.06
12213;BME280;6169;44.158;22.788;2023-02-28T18:23:59;102204.31;;;7.30;68.77
12213;BME280;6169;44.158;22.788;2023-02-28T18:29:04;102152.22;;;6.66;70.49
12213;BME280;6169;44.158;22.788;2023-02-28T18:34:07;102205.41;;;7.67;67.97
12213;BME280;6169;44.158;22.788;2023-02-28T18:39:10;102209.91;;;7.75;67.61
12213;BME280;6169;44.158;22.788;2023-02-28T18:44:15;102210.91;;;6.33;71.67
12213;BME280;6169;44.158;22.788;2023-02-28T18:49:19;102198.31;;;7.43;69.20
12213;BME280;6169;44.158;22.788;2023-02-28T18:54:22;102198.63;;;7.17;69.32
12213;BME280;6169;44.158;22.788;2023-02-28T18:59:26;102206.50;;;6.96;70.52
12213;BME280;6169;44.158;22.788;2023-02-28T19:04:28;102217.84;;;7.30;69.87
12213;BME280;6169;44.158;22.788;2023-02-28T19:09:31;102209.13;;;7.43;69.44
12213;BME280;6169;44.158;22.788;2023-02-28T19:14:35;102213.38;;;7.38;69.77
12213;BME280;6169;44.158;22.788;2023-02-28T19:19:37;102212.50;;;7.45;68.79
12213;BME280;6169;44.158;22.788;2023-02-28T19:24:40;102213.13;;;6.93;70.86
12213;BME280;6169;44.158;22.788;2023-02-28T19:29:43;102222.59;;;6.81;71.41
12213;BME280;6169;44.158;22.788;2023-02-28T19:34:46;102219.19;;;6.95;72.13
12213;BME280;6169;44.158;22.788;2023-02-28T19:39:48;102221.88;;;7.57;69.59
12213;BME280;6169;44.158;22.788;2023-02-28T19:44:55;102220.66;;;7.37;70.08
12213;BME280;6169;44.158;22.788;2023-02-28T19:49:57;102225.81;;;7.24;70.45
12213;BME280;6169;44.158;22.788;2023-02-28T19:55:00;102214.53;;;6.73;72.62
12213;BME280;6169;44.158;22.788;2023-02-28T20:00:05;102203.03;;;7.18;70.03
12213;BME280;6169;44.158;22.788;2023-02-28T20:05:08;102214.97;;;6.84;71.93
12213;BME280;6169;44.158;22.788;2023-02-28T20:10:11;102220.78;;;6.65;71.71
12213;BME280;6169;44.158;22.788;2023-02-28T20:15:15;102205.19;;;7.23;70.36
12213;BME280;6169;44.158;22.788;2023-02-28T20:20:18;102202.78;;;6.49;73.82
12213;BME280;6169;44.158;22.788;2023-02-28T20:25:20;102190.72;;;6.68;72.85
12213;BME280;6169;44.158;22.788;2023-02-28T20:30:24;102205.00;;;7.24;71.08
12213;BME280;6169;44.158;22.788;2023-02-28T20:35:27;102205.56;;;7.20;71.42
12213;BME280;6169;44.158;22.788;2023-02-28T20:40:29;102218.03;;;7.52;69.22
12213;BME280;6169;44.158;22.788;2023-02-28T20:45:33;102220.44;;;7.16;70.36
12213;BME280;6169;44.158;22.788;2023-02-28T20:50:35;102156.28;;;7.01;70.33
12213;BME280;6169;44.158;22.788;2023-02-28T20:55:37;102217.56;;;7.17;70.69
12213;BME280;6169;44.158;22.788;2023-02-28T21:00:41;102085.97;;;6.39;70.68
12213;BME280;6169;44.158;22.788;2023-02-28T21:05:43;102220.84;;;7.36;69.97
12213;BME280;6169;44.158;22.788;2023-02-28T21:10:46;102205.09;;;7.39;70.04
12213;BME280;6169;44.158;22.788;2023-02-28T21:15:50;102207.34;;;7.27;69.37
12213;BME280;6169;44.158;22.788;2023-02-28T21:20:52;102201.09;;;6.96;70.97
12213;BME280;6169;44.158;22.788;2023-02-28T21:25:54;102199.44;;;6.95;71.56
12213;BME280;6169;44.158;22.788;2023-02-28T21:31:02;102196.63;;;6.72;71.56
12213;BME280;6169;44.158;22.788;2023-02-28T21:36:07;102184.69;;;7.05;70.35
12213;BME280;6169;44.158;22.788;2023-02-28T21:41:11;102184.50;;;7.07;70.90
12213;BME280;6169;44.158;22.788;2023-02-28T21:46:17;102183.91;;;6.88;70.99
12213;BME280;6169;44.158;22.788;2023-02-28T21:51:22;102197.34;;;7.05;71.05
12213;BME280;6169;44.158;22.788;2023-02-28T21:56:27;102193.63;;;7.37;70.46
12213;BME280;6169;44.158;22.788;2023-02-28T22:01:33;102189.94;;;6.99;71.29
12213;BME280;6169;44.158;22.788;2023-02-28T22:06:37;102186.66;;;7.11;70.67
12213;BME280;6169;44.158;22.788;2023-02-28T22:11:40;102191.72;;;6.75;72.26
12213;BME280;6169;44.158;22.788;2023-02-28T22:16:44;102169.13;;;6.60;71.98
12213;BME280;6169;44.158;22.788;2023-02-28T22:21:47;102182.09;;;6.73;72.36
12213;BME280;6169;44.158;22.788;2023-02-28T22:26:49;102181.19;;;6.97;71.41
12213;BME280;6169;44.158;22.788;2023-02-28T22:31:53;102195.72;;;7.50;69.16
12213;BME280;6169;44.158;22.788;2023-02-28T22:36:55;102198.63;;;7.48;68.57
12213;BME280;6169;44.158;22.788;2023-02-28T22:41:58;102188.31;;;6.73;69.90
12213;BME280;6169;44.158;22.788;2023-02-28T22:47:02;102184.78;;;6.73;71.42
12213;BME280;6169;44.158;22.788;2023-02-28T22:52:04;102177.47;;;7.21;69.90
12213;BME280;6169;44.158;22.788;2023-02-28T22:57:06;102188.03;;;7.07;69.67
12213;BME280;6169;44.158;22.788;2023-02-28T23:02:10;102182.31;;;7.33;69.02
12213;BME280;6169;44.158;22.788;2023-02-28T23:07:13;102168.97;;;6.53;72.10
12213;BME280;6169;44.158;22.788;2023-02-28T23:12:16;102170.56;;;7.18;69.25
12213;BME280;6169;44.158;22.788;2023-02-28T23:17:20;102170.81;;;7.08;68.83
12213;BME280;6169;44.158;22.788;2023-02-28T23:22:22;102166.91;;;7.11;69.41
12213;BME280;6169;44.158;22.788;2023-02-28T23:27:24;102169.13;;;6.60;71.57
12213;BME280;6169;44.158;22.788;2023-02-28T23:32:28;102166.00;;;6.87;70.38
12213;BME280;6169;44.158;22.788;2023-02-28T23:37:30;102175.47;;;6.83;71.17
12213;BME280;6169;44.158;22.788;2023-02-28T23:42:33;102168.66;;;6.96;69.74
12213;BME280;6169;44.158;22.788;2023-02-28T23:47:37;102164.34;;;6.70;70.13
12213;BME280;6169;44.158;22.788;2023-02-28T23:52:39;102165.28;;;6.94;69.19
12213;BME280;6169;44.158;22.788;2023-02-28T23:57:41;102163.13;;;7.20;68.70
